createdAt,value
2023-04-21T00:02:17.524Z,100.00
2023-04-21T00:04:47.467Z,100.00
2023-04-21T00:07:17.102Z,100.00
2023-04-21T05:54:34.148Z,100.00
2023-04-21T05:57:03.883Z,100.00
2023-04-21T05:59:33.407Z,100.00
2023-04-21T06:02:03.836Z,100.00
2023-04-21T06:04:33.653Z,100.00
2023-04-21T06:07:07.950Z,100.00
2023-04-21T06:09:39.148Z,100.00
2023-04-21T06:12:09.135Z,100.00
2023-04-21T06:14:38.611Z,100.00
2023-04-21T06:17:08.137Z,100.00
2023-04-21T06:19:40.811Z,100.00
2023-04-21T06:22:11.311Z,100.00
2023-04-21T06:24:42.073Z,100.00
2023-04-21T06:27:13.354Z,100.00
2023-04-21T06:29:43.804Z,100.00
2023-04-21T06:32:13.569Z,100.00
2023-04-21T06:34:43.037Z,100.00
2023-04-21T06:37:12.738Z,100.00
2023-04-21T06:39:43.571Z,100.00
2023-04-21T06:42:13.119Z,100.00
2023-04-21T06:44:45.721Z,100.00
2023-04-21T06:47:16.711Z,100.00
2023-04-21T06:49:46.549Z,100.00
2023-04-21T06:52:16.757Z,100.00
2023-04-21T06:54:48.999Z,100.00
2023-04-21T06:57:18.639Z,100.00
2023-04-21T06:59:51.023Z,100.00
2023-04-21T07:02:20.643Z,100.00
2023-04-21T07:04:50.084Z,100.00
2023-04-21T07:07:19.651Z,100.00
2023-04-21T07:09:50.474Z,100.00
2023-04-21T07:12:19.920Z,100.00
2023-04-21T07:14:49.380Z,100.00
2023-04-21T07:17:18.872Z,100.00
2023-04-21T07:19:48.634Z,100.00
2023-04-21T07:22:18.068Z,100.00
2023-04-21T07:24:49.586Z,100.00
2023-04-21T07:27:20.103Z,100.00
2023-04-21T07:29:49.879Z,100.00
2023-04-21T07:32:19.459Z,100.00
2023-04-21T16:11:49.957Z,45.43
2023-04-21T16:14:20.156Z,45.79
2023-04-21T16:16:49.888Z,45.52
2023-04-21T16:19:19.412Z,45.64
2023-04-21T16:21:49.186Z,46.17
2023-04-21T16:24:18.755Z,46.28
2023-04-21T16:26:49.765Z,46.82
2023-04-21T16:29:20.830Z,46.44
2023-04-21T16:31:50.806Z,46.57
2023-04-21T16:34:20.498Z,47.26
2023-04-21T16:36:50.057Z,47.06
2023-04-21T16:39:19.626Z,48.09
2023-04-21T16:41:50.615Z,48.86
2023-04-21T16:44:20.684Z,49.32
2023-04-21T16:46:50.806Z,48.89
2023-04-21T16:49:20.489Z,49.33
2023-04-21T16:51:49.997Z,49.70
2023-04-21T16:54:19.498Z,50.38
2023-04-21T16:56:51.050Z,50.80
2023-04-21T16:59:21.310Z,51.66
2023-04-21T17:01:50.840Z,52.39
2023-04-21T17:04:21.498Z,52.70
2023-04-21T17:06:51.076Z,53.10
2023-04-21T17:09:20.568Z,53.24
2023-04-21T17:11:51.642Z,53.43
2023-04-21T17:14:21.426Z,53.78
2023-04-21T17:16:51.136Z,54.37
2023-04-21T17:19:20.641Z,54.63
2023-04-21T17:21:50.326Z,54.88
2023-04-21T17:24:20.083Z,55.10
2023-04-21T17:26:50.966Z,55.26
2023-04-21T17:29:20.471Z,55.64
2023-04-21T17:31:50.023Z,56.28
2023-04-21T17:34:20.619Z,56.71
2023-04-21T17:36:50.337Z,56.42
2023-04-21T17:39:19.829Z,56.58
2023-04-21T17:41:49.331Z,56.74
2023-04-21T17:44:20.729Z,57.77
2023-04-21T17:46:50.335Z,58.05
2023-04-21T17:49:19.812Z,58.97
2023-04-21T17:51:51.204Z,59.37
2023-04-21T17:54:21.576Z,59.44
2023-04-21T17:56:51.635Z,60.08
2023-04-21T17:59:22.599Z,60.42
2023-04-21T18:01:52.296Z,60.42
2023-04-21T18:04:24.372Z,61.35
2023-04-21T18:06:53.922Z,61.90
2023-04-21T18:09:23.455Z,62.66
2023-04-21T18:11:52.949Z,63.72
2023-04-21T18:14:24.605Z,64.38
2023-04-21T18:16:54.258Z,65.20
2023-04-21T18:19:23.964Z,66.24
2023-04-21T18:21:53.502Z,67.18
2023-04-21T18:24:23.040Z,68.69
2023-04-21T18:26:52.534Z,70.44
2023-04-21T18:29:23.643Z,73.55
2023-04-21T18:31:53.291Z,77.80
2023-04-21T18:34:22.929Z,81.85
2023-04-21T18:36:52.635Z,85.46
2023-04-21T18:39:22.163Z,90.03
2023-04-21T18:41:52.064Z,93.27
2023-04-21T18:44:23.106Z,97.51
2023-04-21T18:46:52.578Z,100.00
2023-04-21T18:49:22.178Z,91.80
2023-04-21T18:51:51.728Z,87.31
2023-04-21T18:54:21.357Z,89.46
2023-04-21T18:56:50.808Z,91.21
2023-04-21T18:59:22.225Z,88.11
2023-04-21T19:01:54.053Z,83.13
2023-04-21T19:04:23.767Z,73.39
2023-04-21T19:06:53.564Z,74.60
2023-04-21T19:09:23.705Z,73.75
2023-04-21T19:11:53.376Z,72.54
2023-04-21T19:14:23.195Z,72.35
2023-04-21T19:16:54.411Z,71.42
2023-04-21T19:19:24.529Z,76.14
2023-04-21T19:21:54.152Z,76.52
2023-04-21T19:24:23.853Z,74.00
2023-04-21T19:26:53.692Z,74.82
2023-04-21T19:29:23.496Z,80.71
2023-04-21T19:31:54.979Z,83.02
2023-04-21T19:34:24.561Z,88.66
2023-04-21T19:36:54.074Z,95.11
2023-04-21T19:39:23.600Z,100.00
2023-04-21T19:41:53.454Z,100.00
2023-04-21T19:44:23.139Z,100.00
2023-04-21T19:46:54.323Z,100.00
2023-04-21T19:49:24.304Z,100.00
2023-04-21T19:51:54.409Z,100.00
2023-04-21T19:54:24.785Z,100.00
2023-04-21T19:56:54.363Z,100.00
2023-04-21T19:59:23.877Z,100.00
2023-04-21T20:01:54.949Z,100.00
2023-04-21T20:04:24.603Z,100.00
2023-04-21T20:06:54.525Z,100.00
2023-04-21T20:09:24.098Z,100.00
2023-04-21T20:11:53.737Z,100.00
2023-04-21T20:14:23.540Z,100.00
2023-04-21T20:16:55.098Z,100.00
2023-04-21T20:19:27.060Z,100.00
2023-04-21T20:21:56.576Z,100.00
2023-04-21T20:24:26.097Z,100.00
2023-04-21T20:26:55.717Z,100.00
2023-04-21T20:29:25.457Z,100.00
2023-04-21T20:31:57.371Z,100.00
2023-04-21T20:34:27.294Z,100.00
2023-04-21T20:36:57.639Z,100.00
2023-04-21T20:39:27.115Z,100.00
2023-04-21T20:42:11.839Z,100.00
2023-04-21T20:44:43.357Z,100.00
2023-04-21T20:47:14.447Z,100.00
2023-04-21T20:49:44.523Z,100.00
2023-04-21T20:52:14.467Z,100.00
2023-04-21T20:54:44.482Z,100.00
2023-04-21T20:57:14.610Z,100.00
2023-04-21T20:59:44.778Z,100.00
2023-04-21T21:02:15.872Z,100.00
2023-04-21T21:04:47.216Z,100.00
2023-04-21T21:07:17.195Z,100.00
2023-04-21T21:09:47.068Z,100.00
2023-04-21T21:12:16.759Z,100.00
2023-04-21T21:14:46.443Z,100.00
2023-04-21T21:17:17.720Z,100.00
2023-04-21T21:19:49.254Z,100.00
2023-04-21T21:22:19.223Z,100.00
2023-04-21T21:24:50.408Z,100.00
2023-04-21T21:27:20.401Z,100.00
2023-04-21T21:29:50.394Z,100.00
2023-04-21T21:32:21.778Z,100.00
2023-04-21T21:34:52.216Z,100.00
2023-04-21T21:37:23.558Z,100.00
2023-04-21T21:39:55.207Z,100.00
2023-04-21T21:42:24.766Z,100.00
2023-04-21T21:44:54.479Z,100.00
2023-04-21T21:47:26.074Z,100.00
2023-04-21T21:49:57.772Z,100.00
2023-04-21T21:52:28.486Z,100.00
2023-04-21T21:54:58.475Z,100.00
2023-04-21T21:57:28.466Z,100.00
2023-04-21T22:00:00.547Z,100.00
2023-04-21T22:02:31.854Z,100.00
2023-04-21T22:05:01.802Z,100.00
2023-04-21T22:07:31.884Z,100.00
2023-04-21T22:10:01.573Z,100.00
2023-04-21T22:12:33.695Z,100.00
2023-04-21T22:15:04.052Z,100.00
2023-04-21T22:17:37.916Z,100.00
2023-04-21T22:20:12.264Z,100.00
2023-04-21T22:22:42.468Z,100.00
2023-04-21T22:25:12.500Z,100.00
2023-04-21T22:27:42.521Z,100.00
2023-04-21T22:30:13.600Z,100.00
2023-04-21T22:32:44.481Z,100.00
2023-04-21T22:35:13.994Z,100.00
2023-04-21T22:37:43.717Z,100.00
2023-04-21T22:40:13.987Z,100.00
2023-04-21T22:42:43.903Z,100.00
2023-04-21T22:45:14.038Z,100.00
2023-04-21T22:47:45.186Z,100.00
2023-04-21T22:50:15.923Z,100.00
2023-04-21T22:52:46.664Z,100.00
2023-04-21T22:55:17.294Z,100.00
2023-04-21T22:57:47.660Z,100.00
2023-04-21T23:00:18.514Z,100.00
2023-04-21T23:02:50.081Z,100.00
2023-04-21T23:05:20.238Z,100.00
2023-04-21T23:07:50.273Z,100.00
2023-04-21T23:10:20.575Z,100.00
2023-04-21T23:12:50.606Z,100.00
2023-04-21T23:15:20.684Z,100.00
2023-04-21T23:17:52.235Z,100.00
2023-04-21T23:20:22.358Z,100.00
2023-04-21T23:22:52.390Z,100.00
2023-04-21T23:25:22.633Z,100.00
2023-04-21T23:27:52.835Z,100.00
2023-04-21T23:30:22.901Z,100.00
2023-04-21T23:32:54.116Z,100.00
2023-04-21T23:35:24.325Z,100.00
2023-04-21T23:37:54.047Z,100.00
2023-04-21T23:40:23.865Z,100.00
2023-04-21T23:42:53.398Z,100.00
2023-04-21T23:45:23.284Z,100.00
2023-04-21T23:47:54.331Z,100.00
2023-04-21T23:50:23.996Z,100.00
2023-04-21T23:52:53.658Z,100.00
2023-04-21T23:55:23.634Z,100.00
2023-04-21T23:57:53.310Z,100.00
